Oakland, California
Current Conditions -  °F | °C
As of 4:53 PM on Sunday 23 Nov 2014 (Local Time) from KOAK Reporting Station
Broken Clouds Broken Clouds  
Wind Chill: 59°   Ceiling: 22000
Heat Index: 59°   Visibility: 10mi
Dew Point: 46°   Wind: 0mph
Humidity: 62%   Direction: NA
Pressure: 30.27"   Gusts: NA
Location:  37.81°N, 122.27°W
Report Text: KOAK 240053Z 00000KT 10SM FEW130 BKN220 15/08 A3027 RMK AO2 SLP251 T01500078 $
Loading
Personal Weather Stations






























Interactive Weather Map New forecast layout! Learn more

10-Day Weather Forecast

Advertisements
Track Severe Weather on mobile